sensor_id;sensor_type;location;lat;lon;timestamp;pressure;altitude;pressure_sealevel;temperature;humidity
37710;BME280;60223;34.854;-92.408;2024-03-07T00:01:06;100317.83;;;23.38;36.21
37710;BME280;60223;34.854;-92.408;2024-03-07T00:03:31;100324.73;;;23.54;35.99
37710;BME280;60223;34.854;-92.408;2024-03-07T00:05:58;100326.56;;;23.39;36.23
37710;BME280;60223;34.854;-92.408;2024-03-07T00:08:24;100316.01;;;23.39;36.27
37710;BME280;60223;34.854;-92.408;2024-03-07T00:10:50;100320.88;;;23.57;36.06
37710;BME280;60223;34.854;-92.408;2024-03-07T00:13:15;100321.41;;;23.38;36.34
37710;BME280;60223;34.854;-92.408;2024-03-07T00:15:41;100322.83;;;23.63;36.36
37710;BME280;60223;34.854;-92.408;2024-03-07T00:18:05;100326.81;;;23.76;36.55
37710;BME280;60223;34.854;-92.408;2024-03-07T00:20:30;100324.09;;;23.56;36.52
37710;BME280;60223;34.854;-92.408;2024-03-07T00:22:58;100322.18;;;23.23;36.91
37710;BME280;60223;34.854;-92.408;2024-03-07T00:25:23;100324.03;;;23.03;36.94
37710;BME280;60223;34.854;-92.408;2024-03-07T00:27:49;100326.60;;;23.48;36.38
37710;BME280;60223;34.854;-92.408;2024-03-07T00:30:15;100325.39;;;23.08;37.00
37710;BME280;60223;34.854;-92.408;2024-03-07T00:32:38;100323.71;;;23.38;36.66
37710;BME280;60223;34.854;-92.408;2024-03-07T00:35:06;100325.77;;;23.73;36.59
37710;BME280;60223;34.854;-92.408;2024-03-07T00:37:32;100328.01;;;23.07;37.15
37710;BME280;60223;34.854;-92.408;2024-03-07T00:39:59;100329.93;;;23.39;36.77
37710;BME280;60223;34.854;-92.408;2024-03-07T00:42:21;100330.70;;;23.67;36.70
37710;BME280;60223;34.854;-92.408;2024-03-07T00:44:49;100336.29;;;23.87;36.47
37710;BME280;60223;34.854;-92.408;2024-03-07T00:47:14;100339.15;;;23.22;37.02
37710;BME280;60223;34.854;-92.408;2024-03-07T00:49:40;100341.88;;;23.82;36.90
37710;BME280;60223;34.854;-92.408;2024-03-07T00:52:06;100336.96;;;23.53;36.92
37710;BME280;60223;34.854;-92.408;2024-03-07T00:54:30;100340.47;;;23.23;36.99
37710;BME280;60223;34.854;-92.408;2024-03-07T00:56:57;100350.03;;;23.24;36.99
37710;BME280;60223;34.854;-92.408;2024-03-07T00:59:23;100351.42;;;23.18;37.09
37710;BME280;60223;34.854;-92.408;2024-03-07T01:01:48;100351.25;;;23.85;36.82
37710;BME280;60223;34.854;-92.408;2024-03-07T01:04:13;100358.23;;;23.43;36.73
37710;BME280;60223;34.854;-92.408;2024-03-07T01:06:40;100363.42;;;22.85;37.48
37710;BME280;60223;34.854;-92.408;2024-03-07T01:09:05;100356.97;;;23.18;37.07
37710;BME280;60223;34.854;-92.408;2024-03-07T01:11:31;100352.86;;;23.32;36.86
37710;BME280;60223;34.854;-92.408;2024-03-07T01:13:57;100348.57;;;23.13;37.11
37710;BME280;60223;34.854;-92.408;2024-03-07T01:16:21;100342.68;;;23.65;36.71
37710;BME280;60223;34.854;-92.408;2024-03-07T01:18:48;100341.31;;;23.16;37.04
37710;BME280;60223;34.854;-92.408;2024-03-07T01:21:14;100349.58;;;23.44;36.68
37710;BME280;60223;34.854;-92.408;2024-03-07T01:23:39;100353.05;;;23.48;37.18
37710;BME280;60223;34.854;-92.408;2024-03-07T01:26:05;100360.52;;;23.43;36.64
37710;BME280;60223;34.854;-92.408;2024-03-07T01:28:31;100371.59;;;23.47;36.57
37710;BME280;60223;34.854;-92.408;2024-03-07T01:30:54;100378.47;;;23.35;36.75
37710;BME280;60223;34.854;-92.408;2024-03-07T01:33:22;100383.61;;;23.27;36.86
37710;BME280;60223;34.854;-92.408;2024-03-07T01:35:47;100379.43;;;23.74;36.80
37710;BME280;60223;34.854;-92.408;2024-03-07T01:38:11;100377.39;;;23.20;36.88
37710;BME280;60223;34.854;-92.408;2024-03-07T01:40:37;100383.39;;;23.33;36.71
37710;BME280;60223;34.854;-92.408;2024-03-07T01:43:06;100386.65;;;22.97;37.18
37710;BME280;60223;34.854;-92.408;2024-03-07T01:45:30;100383.43;;;23.13;36.95
37710;BME280;60223;34.854;-92.408;2024-03-07T01:47:56;100387.91;;;23.56;36.97
37710;BME280;60223;34.854;-92.408;2024-03-07T01:50:20;100384.85;;;23.39;36.89
37710;BME280;60223;34.854;-92.408;2024-03-07T01:52:46;100381.89;;;23.22;36.79
37710;BME280;60223;34.854;-92.408;2024-03-07T01:55:14;100380.23;;;23.49;36.75
37710;BME280;60223;34.854;-92.408;2024-03-07T01:57:39;100385.14;;;23.23;36.75
37710;BME280;60223;34.854;-92.408;2024-03-07T02:00:04;100386.13;;;23.07;36.96
37710;BME280;60223;34.854;-92.408;2024-03-07T02:02:30;100384.40;;;23.36;36.53
37710;BME280;60223;34.854;-92.408;2024-03-07T02:04:55;100376.85;;;23.39;36.48
37710;BME280;60223;34.854;-92.408;2024-03-07T02:07:19;100372.25;;;23.34;36.52
37710;BME280;60223;34.854;-92.408;2024-03-07T02:09:49;100374.83;;;23.27;36.62
37710;BME280;60223;34.854;-92.408;2024-03-07T02:12:13;100376.90;;;22.97;37.01
37710;BME280;60223;34.854;-92.408;2024-03-07T02:14:38;100371.98;;;23.11;36.49
37710;BME280;60223;34.854;-92.408;2024-03-07T02:17:04;100369.64;;;23.57;36.49
37710;BME280;60223;34.854;-92.408;2024-03-07T02:19:30;100376.62;;;22.97;36.96
37710;BME280;60223;34.854;-92.408;2024-03-07T02:21:53;100375.30;;;23.40;36.74
37710;BME280;60223;34.854;-92.408;2024-03-07T02:24:21;100382.78;;;23.26;36.87
37710;BME280;60223;34.854;-92.408;2024-03-07T02:26:46;100380.28;;;23.11;36.79
37710;BME280;60223;34.854;-92.408;2024-03-07T02:29:10;100380.90;;;23.18;36.33
37710;BME280;60223;34.854;-92.408;2024-03-07T02:31:38;100381.05;;;23.37;36.39
37710;BME280;60223;34.854;-92.408;2024-03-07T02:34:03;100380.50;;;23.74;36.53
37710;BME280;60223;34.854;-92.408;2024-03-07T02:36:30;100378.91;;;23.00;36.84
37710;BME280;60223;34.854;-92.408;2024-03-07T02:38:56;100374.86;;;22.90;36.98
37710;BME280;60223;34.854;-92.408;2024-03-07T02:41:21;100374.28;;;23.37;36.38
37710;BME280;60223;34.854;-92.408;2024-03-07T02:43:46;100378.60;;;23.45;36.88
37710;BME280;60223;34.854;-92.408;2024-03-07T02:46:12;100377.52;;;23.13;36.65
37710;BME280;60223;34.854;-92.408;2024-03-07T02:48:37;100373.58;;;23.27;36.47
37710;BME280;60223;34.854;-92.408;2024-03-07T02:51:03;100368.72;;;23.18;36.59
37710;BME280;60223;34.854;-92.408;2024-03-07T02:53:26;100375.61;;;23.35;36.65
37710;BME280;60223;34.854;-92.408;2024-03-07T02:55:52;100381.15;;;23.25;36.75
37710;BME280;60223;34.854;-92.408;2024-03-07T02:58:20;100378.18;;;22.81;36.99
37710;BME280;60223;34.854;-92.408;2024-03-07T03:00:46;100384.50;;;22.85;36.89
37710;BME280;60223;34.854;-92.408;2024-03-07T03:03:09;100393.21;;;22.96;36.79
37710;BME280;60223;34.854;-92.408;2024-03-07T03:05:37;100393.26;;;23.02;36.68
37710;BME280;60223;34.854;-92.408;2024-03-07T03:08:03;100392.23;;;23.14;36.81
37710;BME280;60223;34.854;-92.408;2024-03-07T03:10:29;100396.68;;;23.26;36.64
37710;BME280;60223;34.854;-92.408;2024-03-07T03:12:55;100395.48;;;22.79;36.92
37710;BME280;60223;34.854;-92.408;2024-03-07T03:15:20;100388.92;;;23.05;36.60
37710;BME280;60223;34.854;-92.408;2024-03-07T03:17:47;100384.15;;;22.99;36.96
37710;BME280;60223;34.854;-92.408;2024-03-07T03:20:11;100378.80;;;22.93;36.68
37710;BME280;60223;34.854;-92.408;2024-03-07T03:22:35;100374.29;;;23.10;36.80
37710;BME280;60223;34.854;-92.408;2024-03-07T03:25:02;100372.28;;;23.29;36.52
37710;BME280;60223;34.854;-92.408;2024-03-07T03:27:28;100370.27;;;23.04;36.51
37710;BME280;60223;34.854;-92.408;2024-03-07T03:29:51;100371.18;;;22.96;36.63
37710;BME280;60223;34.854;-92.408;2024-03-07T03:32:19;100372.42;;;22.93;36.67
37710;BME280;60223;34.854;-92.408;2024-03-07T03:34:44;100374.15;;;23.22;36.27
37710;BME280;60223;34.854;-92.408;2024-03-07T03:37:10;100371.78;;;23.45;36.57
37710;BME280;60223;34.854;-92.408;2024-03-07T03:39:36;100370.65;;;23.17;36.58
37710;BME280;60223;34.854;-92.408;2024-03-07T03:42:01;100371.80;;;23.21;36.55
37710;BME280;60223;34.854;-92.408;2024-03-07T03:44:25;100376.06;;;22.81;36.76
37710;BME280;60223;34.854;-92.408;2024-03-07T03:46:53;100370.12;;;23.23;36.79
37710;BME280;60223;34.854;-92.408;2024-03-07T03:49:18;100372.37;;;23.09;36.32
37710;BME280;60223;34.854;-92.408;2024-03-07T03:51:44;100378.99;;;23.10;36.62
37710;BME280;60223;34.854;-92.408;2024-03-07T03:54:08;100382.01;;;22.74;36.46
37710;BME280;60223;34.854;-92.408;2024-03-07T03:56:35;100379.43;;;23.66;36.16
37710;BME280;60223;34.854;-92.408;2024-03-07T03:59:01;100387.41;;;22.94;36.48
37710;BME280;60223;34.854;-92.408;2024-03-07T04:01:25;100387.41;;;22.80;36.63
37710;BME280;60223;34.854;-92.408;2024-03-07T04:03:52;100389.73;;;22.82;36.64
37710;BME280;60223;34.854;-92.408;2024-03-07T04:06:19;100387.28;;;22.38;37.14
37710;BME280;60223;34.854;-92.408;2024-03-07T04:08:44;100392.68;;;23.43;36.42
37710;BME280;60223;34.854;-92.408;2024-03-07T04:11:07;100398.02;;;23.14;36.46
37710;BME280;60223;34.854;-92.408;2024-03-07T04:13:35;100404.38;;;23.20;36.68
37710;BME280;60223;34.854;-92.408;2024-03-07T04:16:01;100405.77;;;23.13;36.76
37710;BME280;60223;34.854;-92.408;2024-03-07T04:18:26;100409.79;;;23.20;36.66
37710;BME280;60223;34.854;-92.408;2024-03-07T04:20:52;100412.86;;;22.79;36.55
37710;BME280;60223;34.854;-92.408;2024-03-07T04:23:15;100426.70;;;24.74;33.51
37710;BME280;60223;34.854;-92.408;2024-03-07T04:25:43;100430.59;;;25.79;32.16
37710;BME280;60223;34.854;-92.408;2024-03-07T04:28:09;100437.99;;;25.67;31.64
37710;BME280;60223;34.854;-92.408;2024-03-07T04:38:12;100429.10;;;25.46;30.74
37710;BME280;60223;34.854;-92.408;2024-03-07T04:40:18;100431.46;;;25.85;30.03
37710;BME280;60223;34.854;-92.408;2024-03-07T04:42:43;100434.42;;;25.21;30.69
37710;BME280;60223;34.854;-92.408;2024-03-07T04:45:08;100432.95;;;25.58;29.99
37710;BME280;60223;34.854;-92.408;2024-03-07T04:47:33;100429.09;;;25.26;30.26
37710;BME280;60223;34.854;-92.408;2024-03-07T04:50:00;100423.71;;;25.60;30.17
37710;BME280;60223;34.854;-92.408;2024-03-07T04:52:26;100425.66;;;25.49;29.80
37710;BME280;60223;34.854;-92.408;2024-03-07T04:54:51;100421.29;;;25.95;29.50
37710;BME280;60223;34.854;-92.408;2024-03-07T04:57:17;100418.44;;;25.03;29.95
37710;BME280;60223;34.854;-92.408;2024-03-07T04:59:42;100417.90;;;25.24;29.74
37710;BME280;60223;34.854;-92.408;2024-03-07T05:02:08;100416.22;;;25.33;29.61
37710;BME280;60223;34.854;-92.408;2024-03-07T05:04:32;100417.82;;;25.21;29.69
37710;BME280;60223;34.854;-92.408;2024-03-07T05:06:59;100417.09;;;25.79;29.35
37710;BME280;60223;34.854;-92.408;2024-03-07T05:09:25;100413.01;;;26.17;28.65
37710;BME280;60223;34.854;-92.408;2024-03-07T05:11:51;100410.00;;;25.91;28.93
37710;BME280;60223;34.854;-92.408;2024-03-07T05:14:14;100402.87;;;25.83;29.01
37710;BME280;60223;34.854;-92.408;2024-03-07T05:16:42;100393.20;;;25.56;28.98
37710;BME280;60223;34.854;-92.408;2024-03-07T05:19:07;100390.25;;;25.80;28.72
37710;BME280;60223;34.854;-92.408;2024-03-07T05:21:33;100384.78;;;25.71;29.04
37710;BME280;60223;34.854;-92.408;2024-03-07T05:23:59;100380.02;;;26.40;28.32
37710;BME280;60223;34.854;-92.408;2024-03-07T05:26:24;100373.38;;;26.35;28.33
37710;BME280;60223;34.854;-92.408;2024-03-07T05:28:49;100371.16;;;25.99;28.42
37710;BME280;60223;34.854;-92.408;2024-03-07T05:31:15;100371.44;;;26.29;28.39
37710;BME280;60223;34.854;-92.408;2024-03-07T05:33:39;100371.06;;;26.10;28.55
37710;BME280;60223;34.854;-92.408;2024-03-07T05:36:07;100372.05;;;26.83;27.84
37710;BME280;60223;34.854;-92.408;2024-03-07T05:38:32;100369.71;;;26.35;28.00
37710;BME280;60223;34.854;-92.408;2024-03-07T05:40:58;100370.56;;;26.48;27.89
37710;BME280;60223;34.854;-92.408;2024-03-07T05:43:22;100368.74;;;25.29;28.98
37710;BME280;60223;34.854;-92.408;2024-03-07T05:45:49;100368.47;;;26.33;28.27
37710;BME280;60223;34.854;-92.408;2024-03-07T05:48:15;100367.36;;;26.22;28.32
37710;BME280;60223;34.854;-92.408;2024-03-07T05:50:40;100365.71;;;25.36;29.15
37710;BME280;60223;34.854;-92.408;2024-03-07T05:53:04;100366.93;;;25.44;28.55
37710;BME280;60223;34.854;-92.408;2024-03-07T05:55:31;100360.97;;;25.06;28.94
37710;BME280;60223;34.854;-92.408;2024-03-07T05:57:57;100358.91;;;26.08;28.35
37710;BME280;60223;34.854;-92.408;2024-03-07T06:00:22;100362.32;;;26.08;28.06
37710;BME280;60223;34.854;-92.408;2024-03-07T06:02:49;100359.65;;;25.17;28.98
37710;BME280;60223;34.854;-92.408;2024-03-07T06:05:15;100355.09;;;25.70;28.41
37710;BME280;60223;34.854;-92.408;2024-03-07T06:07:40;100355.08;;;25.66;28.49
37710;BME280;60223;34.854;-92.408;2024-03-07T06:10:06;100357.17;;;25.87;28.48
37710;BME280;60223;34.854;-92.408;2024-03-07T06:12:30;100361.86;;;25.17;28.92
37710;BME280;60223;34.854;-92.408;2024-03-07T06:14:57;100361.94;;;25.35;28.74
37710;BME280;60223;34.854;-92.408;2024-03-07T06:17:22;100364.56;;;25.94;27.85
37710;BME280;60223;34.854;-92.408;2024-03-07T06:19:48;100361.66;;;26.68;27.61
37710;BME280;60223;34.854;-92.408;2024-03-07T06:22:12;100361.53;;;25.56;28.23
37710;BME280;60223;34.854;-92.408;2024-03-07T06:24:39;100364.91;;;25.57;28.36
37710;BME280;60223;34.854;-92.408;2024-03-07T06:27:05;100370.47;;;26.39;27.79
37710;BME280;60223;34.854;-92.408;2024-03-07T06:29:30;100371.53;;;26.00;27.94
37710;BME280;60223;34.854;-92.408;2024-03-07T06:31:56;100369.57;;;26.03;28.17
37710;BME280;60223;34.854;-92.408;2024-03-07T06:34:20;100364.74;;;25.65;28.24
37710;BME280;60223;34.854;-92.408;2024-03-07T06:36:47;100359.57;;;26.08;28.01
37710;BME280;60223;34.854;-92.408;2024-03-07T06:39:14;100354.22;;;25.48;28.58
37710;BME280;60223;34.854;-92.408;2024-03-07T06:41:38;100352.24;;;25.77;28.28
37710;BME280;60223;34.854;-92.408;2024-03-07T06:44:05;100348.68;;;25.70;28.11
37710;BME280;60223;34.854;-92.408;2024-03-07T06:46:30;100347.31;;;25.55;28.48
37710;BME280;60223;34.854;-92.408;2024-03-07T06:48:55;100348.34;;;25.70;28.35
37710;BME280;60223;34.854;-92.408;2024-03-07T06:51:21;100346.64;;;25.55;28.47
37710;BME280;60223;34.854;-92.408;2024-03-07T06:53:47;100344.62;;;25.27;28.48
37710;BME280;60223;34.854;-92.408;2024-03-07T06:56:11;100341.88;;;25.52;28.45
37710;BME280;60223;34.854;-92.408;2024-03-07T06:58:38;100336.62;;;25.74;27.98
37710;BME280;60223;34.854;-92.408;2024-03-07T07:01:03;100332.52;;;26.98;27.01
37710;BME280;60223;34.854;-92.408;2024-03-07T07:03:29;100330.90;;;25.44;28.46
37710;BME280;60223;34.854;-92.408;2024-03-07T07:05:52;100331.13;;;25.77;28.09
37710;BME280;60223;34.854;-92.408;2024-03-07T07:08:21;100326.74;;;25.17;28.42
37710;BME280;60223;34.854;-92.408;2024-03-07T07:10:46;100328.24;;;26.91;26.99
37710;BME280;60223;34.854;-92.408;2024-03-07T07:13:12;100323.84;;;25.76;27.82
37710;BME280;60223;34.854;-92.408;2024-03-07T07:15:38;100319.18;;;24.98;28.59
37710;BME280;60223;34.854;-92.408;2024-03-07T07:18:03;100324.23;;;25.36;28.46
37710;BME280;60223;34.854;-92.408;2024-03-07T07:20:29;100331.47;;;25.40;28.39
37710;BME280;60223;34.854;-92.408;2024-03-07T07:22:52;100331.08;;;26.68;27.12
37710;BME280;60223;34.854;-92.408;2024-03-07T07:25:20;100326.00;;;26.18;27.57
37710;BME280;60223;34.854;-92.408;2024-03-07T07:27:46;100322.89;;;25.49;28.44
37710;BME280;60223;34.854;-92.408;2024-03-07T07:30:12;100324.97;;;25.88;27.65
37710;BME280;60223;34.854;-92.408;2024-03-07T07:32:37;100331.93;;;26.03;27.68
37710;BME280;60223;34.854;-92.408;2024-03-07T07:35:02;100327.77;;;25.05;28.84
37710;BME280;60223;34.854;-92.408;2024-03-07T07:37:27;100322.57;;;25.73;27.98
37710;BME280;60223;34.854;-92.408;2024-03-07T07:39:54;100314.50;;;25.51;27.94
37710;BME280;60223;34.854;-92.408;2024-03-07T07:42:20;100304.34;;;26.16;27.49
37710;BME280;60223;34.854;-92.408;2024-03-07T07:44:43;100301.75;;;25.26;28.08
37710;BME280;60223;34.854;-92.408;2024-03-07T07:47:11;100303.53;;;25.81;27.76
37710;BME280;60223;34.854;-92.408;2024-03-07T07:49:36;100302.82;;;24.64;28.67
37710;BME280;60223;34.854;-92.408;2024-03-07T07:52:02;100306.17;;;25.12;28.19
37710;BME280;60223;34.854;-92.408;2024-03-07T07:54:26;100300.51;;;24.93;28.56
37710;BME280;60223;34.854;-92.408;2024-03-07T07:56:51;100307.57;;;25.45;28.12
37710;BME280;60223;34.854;-92.408;2024-03-07T07:59:18;100310.74;;;25.85;27.67
37710;BME280;60223;34.854;-92.408;2024-03-07T08:01:44;100309.60;;;25.30;28.16
37710;BME280;60223;34.854;-92.408;2024-03-07T08:04:08;100304.30;;;26.23;27.27
37710;BME280;60223;34.854;-92.408;2024-03-07T08:06:34;100300.53;;;25.05;28.05
37710;BME280;60223;34.854;-92.408;2024-03-07T08:09:02;100301.15;;;26.56;26.92
37710;BME280;60223;34.854;-92.408;2024-03-07T08:11:27;100303.37;;;25.55;27.80
37710;BME280;60223;34.854;-92.408;2024-03-07T08:13:52;100308.16;;;25.56;27.83
37710;BME280;60223;34.854;-92.408;2024-03-07T08:16:19;100309.75;;;24.89;28.41
37710;BME280;60223;34.854;-92.408;2024-03-07T08:18:42;100303.95;;;26.22;26.95
37710;BME280;60223;34.854;-92.408;2024-03-07T08:21:09;100297.09;;;25.51;27.74
37710;BME280;60223;34.854;-92.408;2024-03-07T08:23:35;100295.92;;;25.62;27.41
37710;BME280;60223;34.854;-92.408;2024-03-07T08:26:01;100304.87;;;25.00;28.28
37710;BME280;60223;34.854;-92.408;2024-03-07T08:28:24;100314.82;;;25.02;28.24
37710;BME280;60223;34.854;-92.408;2024-03-07T08:30:51;100323.30;;;25.62;27.42
37710;BME280;60223;34.854;-92.408;2024-03-07T08:33:18;100324.73;;;26.11;27.19
37710;BME280;60223;34.854;-92.408;2024-03-07T08:35:43;100322.88;;;25.84;27.38
37710;BME280;60223;34.854;-92.408;2024-03-07T08:38:09;100311.12;;;25.01;28.15
37710;BME280;60223;34.854;-92.408;2024-03-07T08:59:57;100291.77;;;25.74;27.30
37710;BME280;60223;34.854;-92.408;2024-03-07T09:02:25;100292.86;;;24.80;28.27
37710;BME280;60223;34.854;-92.408;2024-03-07T09:04:50;100290.46;;;24.75;28.27
37710;BME280;60223;34.854;-92.408;2024-03-07T09:07:16;100285.94;;;25.21;27.79
37710;BME280;60223;34.854;-92.408;2024-03-07T09:09:42;100275.07;;;25.01;27.72
37710;BME280;60223;34.854;-92.408;2024-03-07T09:12:08;100268.57;;;25.19;27.76
37710;BME280;60223;34.854;-92.408;2024-03-07T09:14:33;100266.71;;;24.72;27.96
37710;BME280;60223;34.854;-92.408;2024-03-07T09:16:56;100273.65;;;26.26;26.73
37710;BME280;60223;34.854;-92.408;2024-03-07T09:19:25;100275.67;;;24.69;27.95
37710;BME280;60223;34.854;-92.408;2024-03-07T09:21:51;100280.40;;;25.49;27.46
37710;BME280;60223;34.854;-92.408;2024-03-07T09:24:16;100280.75;;;25.53;27.38
37710;BME280;60223;34.854;-92.408;2024-03-07T09:26:41;100277.46;;;25.28;27.60
37710;BME280;60223;34.854;-92.408;2024-03-07T09:29:05;100282.75;;;24.73;28.14
37710;BME280;60223;34.854;-92.408;2024-03-07T09:31:33;100290.58;;;25.44;27.45
37710;BME280;60223;34.854;-92.408;2024-03-07T09:33:58;100287.29;;;25.25;27.59
37710;BME280;60223;34.854;-92.408;2024-03-07T09:36:23;100284.94;;;26.06;26.78
37710;BME280;60223;34.854;-92.408;2024-03-07T09:38:48;100280.16;;;25.36;27.41
37710;BME280;60223;34.854;-92.408;2024-03-07T09:41:15;100279.90;;;25.94;26.90
37710;BME280;60223;34.854;-92.408;2024-03-07T09:43:41;100271.88;;;25.58;27.20
37710;BME280;60223;34.854;-92.408;2024-03-07T09:46:07;100268.77;;;26.03;26.77
37710;BME280;60223;34.854;-92.408;2024-03-07T09:48:32;100263.51;;;25.09;27.62
37710;BME280;60223;34.854;-92.408;2024-03-07T09:50:58;100261.99;;;25.78;26.97
37710;BME280;60223;34.854;-92.408;2024-03-07T09:53:22;100257.47;;;24.56;27.87
37710;BME280;60223;34.854;-92.408;2024-03-07T09:55:49;100255.91;;;24.72;27.95
37710;BME280;60223;34.854;-92.408;2024-03-07T09:58:15;100256.72;;;24.75;27.88
37710;BME280;60223;34.854;-92.408;2024-03-07T10:00:41;100257.51;;;24.52;28.17
37710;BME280;60223;34.854;-92.408;2024-03-07T10:03:09;100252.12;;;25.09;27.57
37710;BME280;60223;34.854;-92.408;2024-03-07T10:05:32;100247.45;;;24.65;28.01
37710;BME280;60223;34.854;-92.408;2024-03-07T10:07:58;100241.02;;;25.86;26.76
37710;BME280;60223;34.854;-92.408;2024-03-07T10:10:23;100231.10;;;24.92;27.91
37710;BME280;60223;34.854;-92.408;2024-03-07T10:12:49;100231.78;;;25.47;27.41
37710;BME280;60223;34.854;-92.408;2024-03-07T10:15:14;100240.26;;;26.09;26.50
37710;BME280;60223;34.854;-92.408;2024-03-07T10:17:38;100246.36;;;25.57;26.98
37710;BME280;60223;34.854;-92.408;2024-03-07T10:20:06;100254.83;;;25.81;26.81
37710;BME280;60223;34.854;-92.408;2024-03-07T10:22:31;100262.70;;;24.18;28.37
37710;BME280;60223;34.854;-92.408;2024-03-07T10:24:58;100264.64;;;25.29;27.27
37710;BME280;60223;34.854;-92.408;2024-03-07T10:27:23;100271.28;;;23.94;28.56
37710;BME280;60223;34.854;-92.408;2024-03-07T10:29:51;100289.58;;;24.67;28.07
37710;BME280;60223;34.854;-92.408;2024-03-07T10:32:13;100311.45;;;24.57;27.91
37710;BME280;60223;34.854;-92.408;2024-03-07T10:34:39;100317.49;;;24.44;28.04
37710;BME280;60223;34.854;-92.408;2024-03-07T10:37:04;100323.06;;;24.58;27.90
37710;BME280;60223;34.854;-92.408;2024-03-07T10:39:31;100344.57;;;25.23;27.75
37710;BME280;60223;34.854;-92.408;2024-03-07T10:41:56;100426.07;;;24.73;28.02
37710;BME280;60223;34.854;-92.408;2024-03-07T10:44:23;100440.74;;;24.55;28.14
37710;BME280;60223;34.854;-92.408;2024-03-07T10:46:51;100434.57;;;25.69;26.82
37710;BME280;60223;34.854;-92.408;2024-03-07T10:49:16;100442.48;;;24.71;27.67
37710;BME280;60223;34.854;-92.408;2024-03-07T10:51:38;100421.93;;;24.95;27.74
37710;BME280;60223;34.854;-92.408;2024-03-07T10:54:13;100437.04;;;25.35;27.56
37710;BME280;60223;34.854;-92.408;2024-03-07T10:56:41;100422.79;;;24.29;28.13
37710;BME280;60223;34.854;-92.408;2024-03-07T10:59:04;100433.91;;;24.62;27.74
37710;BME280;60223;34.854;-92.408;2024-03-07T11:01:21;100397.61;;;24.91;27.47
37710;BME280;60223;34.854;-92.408;2024-03-07T11:03:47;100409.35;;;25.03;27.33
37710;BME280;60223;34.854;-92.408;2024-03-07T11:06:10;100401.50;;;24.49;27.86
37710;BME280;60223;34.854;-92.408;2024-03-07T11:08:38;100406.42;;;25.01;27.52
37710;BME280;60223;34.854;-92.408;2024-03-07T11:11:06;100413.90;;;24.54;27.75
37710;BME280;60223;34.854;-92.408;2024-03-07T11:13:29;100418.58;;;24.88;27.44
37710;BME280;60223;34.854;-92.408;2024-03-07T11:15:55;100424.95;;;24.45;27.82
37710;BME280;60223;34.854;-92.408;2024-03-07T11:18:18;100428.95;;;24.51;27.76
37710;BME280;60223;34.854;-92.408;2024-03-07T11:20:47;100424.26;;;24.63;27.61
37710;BME280;60223;34.854;-92.408;2024-03-07T11:23:24;100424.85;;;25.45;27.11
37710;BME280;60223;34.854;-92.408;2024-03-07T11:25:38;100420.51;;;24.92;27.57
37710;BME280;60223;34.854;-92.408;2024-03-07T11:28:03;100413.22;;;24.65;27.61
37710;BME280;60223;34.854;-92.408;2024-03-07T11:30:29;100394.86;;;24.48;27.77
37710;BME280;60223;34.854;-92.408;2024-03-07T11:32:54;100385.86;;;24.70;27.48
37710;BME280;60223;34.854;-92.408;2024-03-07T11:35:21;100379.77;;;24.81;27.42
37710;BME280;60223;34.854;-92.408;2024-03-07T11:37:44;100374.84;;;24.72;27.72
37710;BME280;60223;34.854;-92.408;2024-03-07T11:40:12;100367.91;;;24.94;27.49
37710;BME280;60223;34.854;-92.408;2024-03-07T11:42:37;100363.21;;;24.08;28.07
37710;BME280;60223;34.854;-92.408;2024-03-07T11:45:04;100353.78;;;24.57;27.85
37710;BME280;60223;34.854;-92.408;2024-03-07T11:47:35;100347.54;;;24.83;27.63
37710;BME280;60223;34.854;-92.408;2024-03-07T11:49:54;100339.54;;;23.92;28.23
37710;BME280;60223;34.854;-92.408;2024-03-07T11:52:20;100342.77;;;24.53;27.88
37710;BME280;60223;34.854;-92.408;2024-03-07T11:54:45;100333.33;;;24.06;28.08
37710;BME280;60223;34.854;-92.408;2024-03-07T11:57:09;100316.88;;;24.47;27.71
37710;BME280;60223;34.854;-92.408;2024-03-07T11:59:38;100311.23;;;24.50;27.89
37710;BME280;60223;34.854;-92.408;2024-03-07T12:02:02;100296.15;;;25.08;27.55
37710;BME280;60223;34.854;-92.408;2024-03-07T12:04:28;100278.08;;;24.71;27.87
37710;BME280;60223;34.854;-92.408;2024-03-07T12:06:52;100256.63;;;25.47;27.14
37710;BME280;60223;34.854;-92.408;2024-03-07T12:09:19;100261.18;;;23.71;28.39
37710;BME280;60223;34.854;-92.408;2024-03-07T12:11:45;100272.31;;;24.16;27.97
37710;BME280;60223;34.854;-92.408;2024-03-07T12:14:10;100262.03;;;24.64;27.69
37710;BME280;60223;34.854;-92.408;2024-03-07T12:16:34;100254.36;;;23.83;28.24
37710;BME280;60223;34.854;-92.408;2024-03-07T12:19:02;100242.64;;;24.25;27.83
37710;BME280;60223;34.854;-92.408;2024-03-07T12:21:27;100234.13;;;24.27;28.26
37710;BME280;60223;34.854;-92.408;2024-03-07T12:23:53;100223.89;;;24.17;28.10
37710;BME280;60223;34.854;-92.408;2024-03-07T12:26:21;100211.99;;;24.53;28.00
37710;BME280;60223;34.854;-92.408;2024-03-07T12:28:45;100214.52;;;24.64;27.44
37710;BME280;60223;34.854;-92.408;2024-03-07T12:31:10;100222.16;;;24.90;27.63
37710;BME280;60223;34.854;-92.408;2024-03-07T12:33:35;100234.25;;;23.78;28.27
37710;BME280;60223;34.854;-92.408;2024-03-07T12:36:05;100233.54;;;24.96;27.37
37710;BME280;60223;34.854;-92.408;2024-03-07T12:38:25;100234.70;;;24.58;27.40
37710;BME280;60223;34.854;-92.408;2024-03-07T12:41:02;100247.30;;;24.09;28.13
37710;BME280;60223;34.854;-92.408;2024-03-07T12:43:18;100250.84;;;24.34;28.16
37710;BME280;60223;34.854;-92.408;2024-03-07T12:45:48;100257.36;;;24.62;27.87
37710;BME280;60223;34.854;-92.408;2024-03-07T12:48:09;100269.16;;;23.44;28.55